createdAt,value
2022-08-17T00:02:25.494Z,3.17
2022-08-17T00:05:31.538Z,3.00
2022-08-17T00:08:39.427Z,3.30
2022-08-17T00:11:44.067Z,2.70
2022-08-17T00:15:06.691Z,3.03
2022-08-17T00:19:02.099Z,2.90
2022-08-17T00:22:30.842Z,3.25
2022-08-17T00:24:59.338Z,3.67
2022-08-17T00:28:02.099Z,2.90
2022-08-17T00:31:04.112Z,3.08
2022-08-17T00:34:08.733Z,3.38
2022-08-17T00:37:10.436Z,3.10
2022-08-17T00:40:15.172Z,2.95
2022-08-17T00:43:39.801Z,3.30
2022-08-17T00:46:43.774Z,2.83
2022-08-17T00:49:45.606Z,3.22
2022-08-17T00:52:54.956Z,2.72
2022-08-17T00:55:59.301Z,2.80
2022-08-17T00:59:02.600Z,3.15
2022-08-17T01:02:06.303Z,3.03
2022-08-17T01:05:09.370Z,3.03
2022-08-17T01:08:14.995Z,3.25
2022-08-17T01:11:17.223Z,3.35
2022-08-17T01:14:21.477Z,4.00
2022-08-17T01:17:23.222Z,3.58
2022-08-17T01:20:25.160Z,3.42
2022-08-17T01:23:28.836Z,3.50
2022-08-17T01:26:33.085Z,3.47
2022-08-17T01:29:36.844Z,3.22
2022-08-17T01:32:39.327Z,2.80
2022-08-17T01:35:41.026Z,3.08
2022-08-17T01:38:42.747Z,3.40
2022-08-17T01:41:46.489Z,3.30
2022-08-17T01:44:49.493Z,2.80
2022-08-17T01:47:52.286Z,3.30
2022-08-17T01:50:54.587Z,2.95
2022-08-17T01:54:00.296Z,3.00
2022-08-17T01:57:02.586Z,3.38
2022-08-17T02:00:09.518Z,2.78
2022-08-17T02:03:13.025Z,3.38
2022-08-17T02:06:28.077Z,3.50
2022-08-17T02:09:31.644Z,3.08
2022-08-17T02:12:39.149Z,3.40
2022-08-17T02:15:41.527Z,3.25
2022-08-17T02:18:43.428Z,3.83
2022-08-17T02:21:52.086Z,3.45
2022-08-17T02:24:58.865Z,3.40
2022-08-17T02:28:04.236Z,3.10
2022-08-17T02:31:08.826Z,3.35
2022-08-17T02:34:10.979Z,3.42
2022-08-17T02:37:13.194Z,3.22
2022-08-17T02:40:15.720Z,3.22
2022-08-17T02:43:30.318Z,3.45
2022-08-17T02:46:32.449Z,3.67
2022-08-17T02:49:34.244Z,3.25
2022-08-17T02:52:43.831Z,3.58
2022-08-17T02:55:45.904Z,3.80
2022-08-17T02:58:47.616Z,2.83
2022-08-17T03:01:49.446Z,3.40
2022-08-17T03:04:51.198Z,3.80
2022-08-17T03:07:52.999Z,3.45
2022-08-17T03:10:55.091Z,3.40
2022-08-17T03:13:57.450Z,3.47
2022-08-17T03:16:59.376Z,3.80
2022-08-17T03:20:01.274Z,3.70
2022-08-17T03:23:04.008Z,3.33
2022-08-17T03:26:12.386Z,3.50
2022-08-17T03:29:19.246Z,3.53
2022-08-17T03:32:21.365Z,3.45
2022-08-17T03:35:25.688Z,3.33
2022-08-17T03:38:27.526Z,3.60
2022-08-17T03:41:29.246Z,4.03
2022-08-17T03:44:30.985Z,3.78
2022-08-17T03:47:51.305Z,3.42
2022-08-17T03:51:14.789Z,3.65
2022-08-17T03:54:35.597Z,3.70
2022-08-17T03:57:37.805Z,3.28
2022-08-17T04:00:40.506Z,3.67
2022-08-17T04:03:42.251Z,3.65
2022-08-17T04:06:44.923Z,3.50
2022-08-17T04:09:47.134Z,3.67
2022-08-17T04:12:54.622Z,3.45
2022-08-17T04:15:57.331Z,4.07
2022-08-17T04:18:59.074Z,3.53
2022-08-17T04:22:00.970Z,3.50
2022-08-17T04:25:17.015Z,3.67
2022-08-17T04:28:20.025Z,3.60
2022-08-17T04:31:21.822Z,3.75
2022-08-17T04:34:25.122Z,3.50
2022-08-17T04:37:27.001Z,3.60
2022-08-17T04:40:47.400Z,4.10
2022-08-17T04:43:50.698Z,3.90
2022-08-17T04:46:52.435Z,3.70
2022-08-17T04:49:54.177Z,4.22
2022-08-17T04:52:56.214Z,3.88
2022-08-17T04:55:59.139Z,3.78
2022-08-17T04:59:04.326Z,3.83
2022-08-17T05:02:06.027Z,3.83
2022-08-17T05:05:08.173Z,4.13
2022-08-17T05:08:11.219Z,3.60
2022-08-17T05:11:13.820Z,3.88
2022-08-17T05:14:15.933Z,3.70
2022-08-17T05:17:17.647Z,3.60
2022-08-17T05:20:19.373Z,3.80
2022-08-17T05:23:23.694Z,3.72
2022-08-17T05:26:27.720Z,4.10
2022-08-17T05:29:35.295Z,4.00
2022-08-17T05:35:47.079Z,3.28
2022-08-17T05:38:48.831Z,4.35
2022-08-17T05:41:50.624Z,3.90
2022-08-17T05:44:52.889Z,4.13
2022-08-17T05:47:54.665Z,4.20
2022-08-17T05:51:11.885Z,3.50
2022-08-17T05:54:48.718Z,3.80
2022-08-17T05:58:05.658Z,4.22
2022-08-17T06:01:29.271Z,3.58
2022-08-17T06:04:55.837Z,3.40
2022-08-17T06:08:07.548Z,3.60
2022-08-17T06:11:20.888Z,4.07
2022-08-17T06:14:53.470Z,3.75
2022-08-17T06:18:01.586Z,3.60
2022-08-17T06:21:07.153Z,4.07
2022-08-17T06:24:17.643Z,5.53
2022-08-17T06:27:55.779Z,3.45
2022-08-17T06:31:03.246Z,3.30
2022-08-17T06:34:09.599Z,2.97
2022-08-17T06:37:29.585Z,3.08
2022-08-17T06:41:05.329Z,3.00
2022-08-17T06:44:44.748Z,3.25
2022-08-17T06:47:46.725Z,2.75
2022-08-17T06:50:54.710Z,2.78
2022-08-17T06:54:11.666Z,3.00
2022-08-17T06:57:16.654Z,2.90
2022-08-17T07:00:26.490Z,2.97
2022-08-17T07:03:37.786Z,2.88
2022-08-17T07:07:00.757Z,3.30
2022-08-17T07:10:02.674Z,2.88
2022-08-17T07:13:22.917Z,2.40
2022-08-17T07:16:32.475Z,2.85
2022-08-17T07:19:40.564Z,2.78
2022-08-17T07:22:53.570Z,2.78
2022-08-17T07:26:06.809Z,2.88
2022-08-17T07:29:10.264Z,3.03
2022-08-17T07:32:18.466Z,2.75
2022-08-17T07:35:37.942Z,2.85
2022-08-17T07:38:56.641Z,2.92
2022-08-17T07:42:05.103Z,3.03
2022-08-17T07:45:27.685Z,2.60
2022-08-17T07:48:29.423Z,2.72
2022-08-17T07:51:40.726Z,2.70
2022-08-17T07:54:43.077Z,2.10
2022-08-17T07:57:55.682Z,2.58
2022-08-17T08:01:08.086Z,2.60
2022-08-17T08:07:57.247Z,2.35
2022-08-17T08:11:07.153Z,2.47
2022-08-17T08:14:34.030Z,2.42
2022-08-17T08:17:50.089Z,2.50
2022-08-17T08:20:55.427Z,2.28
2022-08-17T08:24:22.622Z,2.50
2022-08-17T08:28:01.602Z,2.33
2022-08-17T08:31:20.638Z,2.25
2022-08-17T08:35:02.217Z,2.22
2022-08-17T08:38:28.580Z,2.20
2022-08-17T08:41:50.454Z,2.45
2022-08-17T08:44:59.926Z,2.38
2022-08-17T08:48:53.043Z,2.10
2022-08-17T08:51:58.537Z,2.03
2022-08-17T08:55:35.505Z,2.22
2022-08-17T08:58:51.225Z,2.33
2022-08-17T09:05:42.727Z,2.40
2022-08-17T09:09:04.282Z,2.53
2022-08-17T09:12:13.988Z,2.60
2022-08-17T09:15:22.048Z,2.88
2022-08-17T09:19:01.044Z,2.40
2022-08-17T09:22:24.968Z,2.20
2022-08-17T09:25:31.325Z,3.80
2022-08-17T09:28:36.684Z,2.22
2022-08-17T09:35:05.907Z,2.13
2022-08-17T09:38:23.201Z,2.00
2022-08-17T09:41:40.016Z,2.42
2022-08-17T09:45:07.852Z,2.30
2022-08-17T09:48:25.424Z,2.40
2022-08-17T09:51:40.173Z,2.35
2022-08-17T09:54:42.486Z,2.20
2022-08-17T09:57:49.434Z,2.70
2022-08-17T10:04:23.774Z,2.40
2022-08-17T10:07:41.125Z,2.40
2022-08-17T10:11:07.848Z,2.22
2022-08-17T10:14:37.747Z,2.35
2022-08-17T10:18:10.724Z,2.10
2022-08-17T10:21:34.140Z,2.10
2022-08-17T10:25:22.286Z,2.30
2022-08-17T10:28:39.509Z,2.45
2022-08-17T10:31:50.388Z,2.20
2022-08-17T10:34:58.198Z,2.40
2022-08-17T10:37:59.856Z,2.60
2022-08-17T10:41:15.732Z,2.38
2022-08-17T10:44:41.207Z,2.03
2022-08-17T10:48:04.318Z,2.38
2022-08-17T10:51:12.810Z,2.08
2022-08-17T10:54:45.563Z,1.95
2022-08-17T10:57:50.203Z,2.22
2022-08-17T11:03:57.564Z,2.13
2022-08-17T11:07:08.194Z,2.05
2022-08-17T11:10:13.469Z,2.20
2022-08-17T11:13:44.986Z,2.20
2022-08-17T11:16:58.816Z,2.10
2022-08-17T11:20:28.346Z,2.20
2022-08-17T11:23:30.051Z,2.10
2022-08-17T11:26:35.115Z,2.35
2022-08-17T11:30:06.374Z,2.30
2022-08-17T11:33:29.758Z,2.05
2022-08-17T11:37:04.237Z,2.38
2022-08-17T11:40:38.586Z,2.25
2022-08-17T11:43:59.117Z,2.03
2022-08-17T11:47:53.027Z,2.42
2022-08-17T11:51:34.998Z,2.00
2022-08-17T11:54:46.569Z,2.28
2022-08-17T11:58:01.543Z,2.08
2022-08-17T12:01:22.666Z,2.28
2022-08-17T12:04:31.686Z,2.00
2022-08-17T12:07:42.048Z,2.30
2022-08-17T12:11:19.004Z,2.33
2022-08-17T12:18:19.126Z,2.33
2022-08-17T12:21:23.710Z,2.00
2022-08-17T12:24:36.811Z,2.22
2022-08-17T12:28:04.765Z,1.80
2022-08-17T12:31:15.932Z,2.00
2022-08-17T12:34:21.837Z,2.13
2022-08-17T12:37:31.593Z,2.20
2022-08-17T12:40:33.503Z,2.03
2022-08-17T12:43:35.266Z,2.40
2022-08-17T12:46:56.396Z,2.40
2022-08-17T12:50:29.207Z,2.20
2022-08-17T12:53:35.455Z,2.50
2022-08-17T12:56:37.393Z,2.40
2022-08-17T12:59:50.476Z,2.10
2022-08-17T13:02:58.200Z,2.38
2022-08-17T13:06:01.598Z,2.10
2022-08-17T13:09:19.212Z,2.28
2022-08-17T13:12:33.898Z,2.28
2022-08-17T13:15:51.680Z,2.30
2022-08-17T13:19:08.956Z,2.30
2022-08-17T13:22:12.935Z,2.30
2022-08-17T13:25:16.964Z,2.05
2022-08-17T13:28:30.646Z,2.05
2022-08-17T13:31:51.821Z,2.28
2022-08-17T13:35:12.031Z,2.55
2022-08-17T13:38:53.267Z,2.13
2022-08-17T13:41:56.096Z,2.40
2022-08-17T13:44:59.044Z,2.30
2022-08-17T13:48:30.182Z,3.50
2022-08-17T13:51:42.466Z,2.00
2022-08-17T13:54:51.321Z,2.17
2022-08-17T13:58:06.762Z,2.40
2022-08-17T14:01:53.162Z,2.20
2022-08-17T14:04:57.306Z,2.28
2022-08-17T14:08:06.978Z,2.10
2022-08-17T14:11:09.015Z,2.28
2022-08-17T14:14:13.510Z,2.28
2022-08-17T14:17:15.364Z,2.20
2022-08-17T14:20:20.081Z,2.35
2022-08-17T14:23:21.833Z,2.28
2022-08-17T14:26:23.809Z,2.13
2022-08-17T14:29:28.209Z,2.22
2022-08-17T14:32:33.147Z,2.42
2022-08-17T14:35:35.024Z,1.98
2022-08-17T14:38:37.903Z,2.30
2022-08-17T14:41:41.390Z,2.40
2022-08-17T14:44:43.162Z,2.00
2022-08-17T14:47:44.995Z,2.03
2022-08-17T14:50:46.769Z,2.30
2022-08-17T14:53:49.503Z,2.42
2022-08-17T14:56:51.371Z,2.28
2022-08-17T15:00:13.844Z,2.00
2022-08-17T15:03:17.141Z,2.00
2022-08-17T15:06:18.907Z,1.80
2022-08-17T15:09:20.671Z,2.30
2022-08-17T15:12:26.443Z,2.15
2022-08-17T15:15:34.218Z,2.22
2022-08-17T15:18:36.612Z,1.67
2022-08-17T15:21:38.386Z,2.22
2022-08-17T15:24:40.101Z,2.15
2022-08-17T15:27:42.555Z,2.20
2022-08-17T15:30:45.230Z,2.15
2022-08-17T15:33:46.968Z,2.28
2022-08-17T15:36:49.471Z,2.17
2022-08-17T15:39:51.844Z,2.45
2022-08-17T15:42:54.295Z,2.00
2022-08-17T15:46:20.453Z,2.20
2022-08-17T15:49:22.619Z,2.00
2022-08-17T15:52:26.613Z,2.38
2022-08-17T15:55:30.609Z,2.20
2022-08-17T15:58:34.033Z,2.28
2022-08-17T16:03:01.639Z,2.33
2022-08-17T16:05:11.160Z,2.00
2022-08-17T16:08:20.699Z,2.13
2022-08-17T16:11:23.067Z,1.95
2022-08-17T16:14:33.652Z,1.58
2022-08-17T16:17:38.851Z,2.00
2022-08-17T16:20:43.452Z,2.10
2022-08-17T16:23:46.251Z,1.98
2022-08-17T16:26:48.113Z,2.13
2022-08-17T16:29:52.032Z,2.30
2022-08-17T16:32:59.809Z,2.42
2022-08-17T16:36:01.542Z,2.60
2022-08-17T16:39:03.531Z,2.05
2022-08-17T16:42:26.344Z,2.38
2022-08-17T16:45:36.351Z,1.90
2022-08-17T16:48:38.135Z,1.88
2022-08-17T16:51:40.272Z,2.17
2022-08-17T16:54:44.446Z,2.17
2022-08-17T16:57:50.239Z,2.10
2022-08-17T17:00:52.534Z,2.38
2022-08-17T17:03:58.999Z,2.08
2022-08-17T17:07:16.800Z,2.30
2022-08-17T17:10:35.949Z,2.78
2022-08-17T17:13:44.426Z,2.35
2022-08-17T17:17:06.140Z,2.50
2022-08-17T17:20:21.741Z,2.40
2022-08-17T17:23:34.326Z,2.33
2022-08-17T17:26:53.503Z,1.95
2022-08-17T17:30:25.184Z,1.85
2022-08-17T17:33:40.385Z,2.22
2022-08-17T17:39:51.887Z,2.03
2022-08-17T17:43:00.038Z,2.17
2022-08-17T17:46:39.888Z,2.30
2022-08-17T17:49:44.150Z,2.05
2022-08-17T17:52:48.440Z,2.67
2022-08-17T17:56:29.665Z,2.15
2022-08-17T17:59:54.168Z,2.10
2022-08-17T18:03:17.552Z,2.15
2022-08-17T18:06:46.509Z,2.10
2022-08-17T18:09:50.971Z,2.30
2022-08-17T18:13:10.192Z,2.35
2022-08-17T18:16:14.112Z,2.72
2022-08-17T18:19:21.257Z,2.65
2022-08-17T18:22:23.940Z,2.00
2022-08-17T18:25:49.692Z,2.13
2022-08-17T18:28:52.868Z,2.33
2022-08-17T18:32:20.502Z,2.10
2022-08-17T18:35:28.271Z,2.30
2022-08-17T18:38:37.326Z,2.13
2022-08-17T18:41:45.471Z,2.22
2022-08-17T18:44:49.581Z,2.15
2022-08-17T18:47:55.465Z,2.55
2022-08-17T18:51:02.141Z,2.17
2022-08-17T18:54:22.554Z,2.15
2022-08-17T18:57:55.600Z,2.40
2022-08-17T19:00:57.405Z,2.50
2022-08-17T19:03:59.786Z,3.08
2022-08-17T19:07:08.139Z,2.58
2022-08-17T19:10:24.567Z,2.40
2022-08-17T19:13:32.529Z,2.15
2022-08-17T19:16:43.372Z,2.47
2022-08-17T19:20:05.189Z,2.53
2022-08-17T19:23:23.775Z,2.38
2022-08-17T19:26:53.474Z,2.30
2022-08-17T19:29:50.850Z,2.67
2022-08-17T19:32:53.141Z,2.47
2022-08-17T19:36:25.680Z,2.42
2022-08-17T19:39:40.248Z,2.50
2022-08-17T19:42:53.324Z,2.72
2022-08-17T19:46:07.683Z,2.35
2022-08-17T19:49:33.770Z,2.70
2022-08-17T19:53:13.866Z,2.38
2022-08-17T19:56:37.501Z,2.72
2022-08-17T20:00:05.000Z,2.60
2022-08-17T20:03:25.494Z,2.50
2022-08-17T20:06:32.993Z,2.70
2022-08-17T20:09:39.002Z,2.35
2022-08-17T20:12:44.567Z,2.17
2022-08-17T20:15:46.943Z,2.75
2022-08-17T20:19:12.494Z,2.30
2022-08-17T20:22:50.352Z,2.25
2022-08-17T20:25:59.283Z,2.30
2022-08-17T20:29:14.855Z,2.10
2022-08-17T20:32:26.152Z,2.38
2022-08-17T20:35:38.360Z,2.20
2022-08-17T20:38:47.761Z,1.90
2022-08-17T20:42:21.896Z,2.00
2022-08-17T20:45:24.311Z,2.13
2022-08-17T20:48:38.655Z,2.20
2022-08-17T20:52:07.739Z,2.35
2022-08-17T20:55:51.791Z,1.95
2022-08-17T20:58:54.523Z,1.77
2022-08-17T21:02:06.659Z,2.17
2022-08-17T21:05:59.737Z,2.20
2022-08-17T21:09:15.680Z,2.10
2022-08-17T21:12:50.189Z,2.45
2022-08-17T21:16:00.661Z,2.25
2022-08-17T21:20:00.245Z,2.97
2022-08-17T21:23:22.631Z,2.78
2022-08-17T21:26:38.939Z,2.35
2022-08-17T21:30:01.769Z,2.67
2022-08-17T21:33:16.924Z,2.60
2022-08-17T21:36:24.320Z,2.63
2022-08-17T21:39:39.342Z,2.80
2022-08-17T21:42:52.746Z,3.27
2022-08-17T21:46:02.207Z,2.90
2022-08-17T21:49:13.848Z,3.05
2022-08-17T21:52:19.890Z,3.63
2022-08-17T21:58:33.319Z,3.28
2022-08-17T22:01:40.215Z,3.60
2022-08-17T22:04:43.100Z,3.22
2022-08-17T22:07:50.905Z,3.65
2022-08-17T22:11:01.144Z,3.40
2022-08-17T22:14:05.992Z,3.30
2022-08-17T22:17:34.363Z,3.42
2022-08-17T22:20:36.217Z,3.10
2022-08-17T22:23:59.769Z,3.30
2022-08-17T22:27:12.946Z,3.35
2022-08-17T22:30:19.854Z,3.05
2022-08-17T22:33:33.605Z,3.10
2022-08-17T22:36:40.458Z,3.40
2022-08-17T22:39:42.428Z,3.60
2022-08-17T22:42:49.787Z,3.25
2022-08-17T22:45:54.563Z,3.10
2022-08-17T22:48:59.464Z,3.70
2022-08-17T22:52:05.172Z,3.85
2022-08-17T22:59:00.272Z,3.22
2022-08-17T23:02:23.139Z,3.17
2022-08-17T23:05:25.503Z,3.45
2022-08-17T23:08:27.259Z,3.17
2022-08-17T23:11:42.831Z,3.40
2022-08-17T23:14:58.426Z,3.17
2022-08-17T23:18:04.869Z,3.45
2022-08-17T23:21:07.705Z,3.17
2022-08-17T23:24:10.868Z,3.53
2022-08-17T23:27:12.727Z,3.33
2022-08-17T23:30:14.523Z,3.30
2022-08-17T23:33:21.344Z,3.42
2022-08-17T23:36:23.685Z,3.33
2022-08-17T23:39:28.185Z,3.33
2022-08-17T23:42:30.174Z,3.42
2022-08-17T23:45:32.142Z,3.20
2022-08-17T23:48:36.694Z,3.78
2022-08-17T23:51:43.925Z,3.97
2022-08-17T23:54:47.348Z,3.42
2022-08-17T23:57:49.325Z,3.92
